Ro Fjord — LFEI — position and weather

sailwx.info

Track history (hours):
 
Tides and Currents Weather Stations Pressure Air Temp Water Temp Dewpoint Dewpoint Depression Visibility Wind Speed Wind Dir Waves Ship Positions

Ro Fjord

Last reported at 2017-Jul-27 06:30 UTC. Time now 2017-Jul-27 06:44 UTC.
Position N 62°19' E 005°39'.

Length 72 m; draft 6.4 m.

Type: Ship. MMSI: 257430000.

Date/timePositionNaut miles runAvg speedWind from/ knotsBaromVisibWave heightAir tempDewpointWater temp
2017-Jul-27 06:30N 62°19' E 005°39'0 0.0
2017-Jul-27 06:00N 62°19' E 005°39'0 0.0
2017-Jul-27 05:30N 62°19' E 005°39'0 0.0
2017-Jul-27 05:00N 62°19' E 005°39'0 0.0
2017-Jul-27 04:30N 62°19' E 005°39'0 0.0
2017-Jul-27 04:00N 62°19' E 005°39'0 0.0
2017-Jul-27 03:30N 62°19' E 005°39'0 0.0
2017-Jul-27 03:00N 62°19' E 005°39'0 0.0
2017-Jul-27 02:29N 62°19' E 005°39'0 0.0
2017-Jul-27 02:00N 62°19' E 005°39'0 0.0
2017-Jul-27 01:30N 62°19' E 005°39'0 0.0
2017-Jul-27 01:00N 62°19' E 005°39'0 0.0
2017-Jul-27 00:30N 62°19' E 005°39'0 0.0
2017-Jul-27 00:00N 62°19' E 005°39'0 0.0
2017-Jul-26 23:30N 62°19' E 005°39'0 0.0
2017-Jul-26 23:00N 62°19' E 005°39'0 0.0
2017-Jul-26 22:30N 62°19' E 005°39'0 0.0
2017-Jul-26 21:59N 62°19' E 005°39'0 0.0
2017-Jul-26 21:30N 62°19' E 005°39'0 0.0
2017-Jul-26 21:00N 62°19' E 005°39'0 0.0
2017-Jul-26 20:30N 62°19' E 005°39'0 0.0
2017-Jul-26 20:00N 62°19' E 005°39'0 0.0
2017-Jul-26 19:30N 62°19' E 005°39'3 6.8
2017-Jul-26 19:00N 62°18' E 005°33'5 9.8
2017-Jul-26 18:30N 62°17' E 005°23'510.0
2017-Jul-26 18:00N 62°14' E 005°13'5 9.5
2017-Jul-26 17:30N 62°12' E 005°05'5 9.6
2017-Jul-26 16:59N 62°07' E 005°06'510.1
2017-Jul-26 16:30N 62°02' E 005°09'5 9.9
2017-Jul-26 15:59N 61°57' E 005°09'4 8.7
2017-Jul-26 15:30N 61°53' E 005°10'4 7.3
2017-Jul-26 15:00N 61°50' E 005°16'1010.1
2017-Jul-26 14:00N 61°44' E 004°58'5 9.7
2017-Jul-26 13:30N 61°39' E 004°59'5 9.4
2017-Jul-26 13:00N 61°35' E 004°57'5 9.1
2017-Jul-26 12:30N 61°30' E 004°60'5 9.9
2017-Jul-26 12:00N 61°26' E 004°53'510.0
2017-Jul-26 11:29N 61°22' E 004°49'5 9.6
2017-Jul-26 11:00N 61°17' E 004°54'510.0
2017-Jul-26 10:30N 61°13' E 004°58'510.3
2017-Jul-26 10:00N 61°09' E 005°06'1 2.1
2017-Jul-26 09:30N 61°09' E 005°08'0 0.0
2017-Jul-26 09:00N 61°09' E 005°08'0 0.0
2017-Jul-26 08:30N 61°09' E 005°08'0 0.1
2017-Jul-26 07:59N 61°09' E 005°08'0 0.0
2017-Jul-26 07:30N 61°09' E 005°08'0 0.0
2017-Jul-26 06:59N 61°09' E 005°08'2 5.0
2017-Jul-26 06:30N 61°10' E 005°03'3 6.7
2017-Jul-26 06:00N 61°13' E 004°59'4 7.5
2017-Jul-26 05:30N 61°16' E 004°55'4 8.3
2017-Jul-26 05:00N 61°19' E 004°50'4 7.5
2017-Jul-26 04:30N 61°23' E 004°49'4 8.5
2017-Jul-26 03:59N 61°27' E 004°54'5 9.3
2017-Jul-26 03:29N 61°30' E 004°60'4 9.0
2017-Jul-26 03:00N 61°35' E 004°57'5 9.3
2017-Jul-26 02:30N 61°39' E 004°59'5 9.4
2017-Jul-26 02:00N 61°44' E 004°58'5 9.6
2017-Jul-26 01:30N 61°47' E 005°05'5 9.6
2017-Jul-26 01:00N 61°50' E 005°14'3 6.7
2017-Jul-26 00:30N 61°53' E 005°10'4 6.9
2017-Jul-25 23:59N 61°56' E 005°07'0 0.0
2017-Jul-25 23:29N 61°56' E 005°07'0 0.0
2017-Jul-25 22:59N 61°56' E 005°07'0 0.0
2017-Jul-25 22:29N 61°56' E 005°07'0 0.0
2017-Jul-25 21:59N 61°56' E 005°07'0 0.0
2017-Jul-25 21:29N 61°56' E 005°07'0 0.0
2017-Jul-25 20:59N 61°56' E 005°07'0 0.0
2017-Jul-25 20:29N 61°56' E 005°07'0 0.0
2017-Jul-25 19:59N 61°56' E 005°07'0 0.0
2017-Jul-25 19:29N 61°56' E 005°07'0 0.0
2017-Jul-25 18:59N 61°56' E 005°07'0 0.0
2017-Jul-25 18:29N 61°56' E 005°07'0 0.0
2017-Jul-25 17:59N 61°56' E 005°07'0 0.0
2017-Jul-25 17:29N 61°56' E 005°07'0 0.0
2017-Jul-25 17:00N 61°56' E 005°07'2 4.7
2017-Jul-25 16:30N 61°58' E 005°09'4 7.2
2017-Jul-25 16:00N 62°02' E 005°09'4 7.5
2017-Jul-25 15:30N 62°05' E 005°06'4 7.7
2017-Jul-25 15:00N 62°09' E 005°04'9 8.9
2017-Jul-25 14:00N 62°16' E 005°17'511.2
2017-Jul-25 13:30N 62°18' E 005°28'510.7
2017-Jul-25 13:00N 62°19' E 005°39'0 0.7
2017-Jul-25 12:30N 62°19' E 005°39'0 0.0
2017-Jul-25 12:00N 62°19' E 005°39'0 0.0
2017-Jul-25 11:30N 62°19' E 005°39'0 0.0
2017-Jul-25 11:00N 62°19' E 005°39'0 0.0
2017-Jul-25 10:30N 62°19' E 005°39'0 0.0
2017-Jul-25 10:00N 62°19' E 005°39'0 0.0
2017-Jul-25 09:30N 62°19' E 005°39'0 0.0
2017-Jul-25 09:00N 62°19' E 005°39'0 0.0
2017-Jul-25 08:30N 62°19' E 005°39'0 0.0
2017-Jul-25 08:00N 62°19' E 005°39'0 0.0
2017-Jul-25 07:30N 62°19' E 005°39'0 0.0
2017-Jul-25 07:00N 62°19' E 005°39'0 0.0
2017-Jul-25 06:30N 62°19' E 005°39'0 0.0
2017-Jul-25 06:00N 62°19' E 005°39'0 0.0
2017-Jul-25 05:30N 62°19' E 005°39'0 0.0
2017-Jul-25 05:00N 62°19' E 005°39'0 0.0
2017-Jul-25 04:30N 62°19' E 005°39'0 0.0
2017-Jul-25 04:00N 62°19' E 005°39'0 0.0
2017-Jul-25 03:30N 62°19' E 005°39'0 0.0
2017-Jul-25 03:00N 62°19' E 005°39'0 0.0
2017-Jul-25 02:30N 62°19' E 005°39'0 0.0
2017-Jul-25 02:00N 62°19' E 005°39'0 0.0
2017-Jul-25 01:30N 62°19' E 005°39'0 0.0
2017-Jul-25 01:00N 62°19' E 005°39'1 1.4
2017-Jul-25 00:30N 62°19' E 005°38'5 9.8
2017-Jul-25 00:00N 62°18' E 005°28'5 9.5
2017-Jul-24 23:30N 62°16' E 005°18'5 9.4
2017-Jul-24 23:00N 62°13' E 005°10'4 8.9
2017-Jul-24 22:30N 62°10' E 005°04'5 9.9
2017-Jul-24 22:00N 62°05' E 005°06'510.1
2017-Jul-24 21:30N 62°01' E 005°09'5 9.7
2017-Jul-24 21:00N 61°56' E 005°08'4 8.6
2017-Jul-24 20:30N 61°52' E 005°13'3 6.2
2017-Jul-24 20:00N 61°49' E 005°12'5 9.9
2017-Jul-24 19:30N 61°47' E 005°03'5 9.7
2017-Jul-24 19:00N 61°43' E 004°57'510.1
2017-Jul-24 18:30N 61°38' E 004°59'4 8.8
2017-Jul-24 18:00N 61°33' E 005°00'5 9.8
2017-Jul-24 17:30N 61°29' E 004°58'510.0
2017-Jul-24 17:00N 61°25' E 004°51'5 9.9
2017-Jul-24 16:30N 61°20' E 004°50'5 9.7
2017-Jul-24 15:59N 61°16' E 004°55'9 3.0
2017-Jul-24 13:00N 61°09' E 005°08'0 0.5
2017-Jul-24 12:30N 61°09' E 005°08'4 8.7
2017-Jul-24 12:00N 61°12' E 005°01'5 8.9
2017-Jul-24 11:30N 61°15' E 004°55'5 9.8
2017-Jul-24 11:00N 61°20' E 004°50'4 8.6
2017-Jul-24 10:30N 61°24' E 004°50'5 9.1
2017-Jul-24 10:00N 61°27' E 004°56'5 9.2
2017-Jul-24 09:30N 61°32' E 005°00'4 8.9
2017-Jul-24 09:00N 61°36' E 004°58'2 3.4
2017-Jul-24 08:30N 61°36' E 005°01'0 0.0
2017-Jul-24 08:00N 61°36' E 005°01'0 0.0
2017-Jul-24 07:30N 61°36' E 005°01'0 0.0
2017-Jul-24 07:00N 61°36' E 005°01'0 0.0
2017-Jul-24 06:30N 61°36' E 005°01'0 0.0
2017-Jul-24 06:00N 61°36' E 005°01'0 0.0
2017-Jul-24 05:30N 61°36' E 005°01'0 0.0
2017-Jul-24 05:00N 61°36' E 005°01'0 0.0
2017-Jul-24 04:30N 61°36' E 005°01'0 0.0
2017-Jul-24 04:00N 61°36' E 005°01'0 0.0
2017-Jul-24 03:30N 61°36' E 005°01'0 0.0
2017-Jul-24 03:00N 61°36' E 005°01'0 0.0
2017-Jul-24 02:30N 61°36' E 005°01'0 0.0
2017-Jul-24 02:00N 61°36' E 005°01'0 0.0
2017-Jul-24 01:30N 61°36' E 005°01'0 0.0
2017-Jul-24 01:00N 61°36' E 005°01'0 0.0
2017-Jul-24 00:30N 61°36' E 005°01'0 0.0
2017-Jul-23 23:59N 61°36' E 005°01'0 0.0
2017-Jul-23 23:30N 61°36' E 005°01'0 0.0
2017-Jul-23 23:00N 61°36' E 005°01'0 0.0
2017-Jul-23 22:30N 61°36' E 005°01'0 0.0
2017-Jul-23 22:00N 61°36' E 005°01'0 0.0
2017-Jul-23 21:30N 61°36' E 005°01'0 0.0
2017-Jul-23 21:00N 61°36' E 005°01'0 0.0
2017-Jul-23 20:30N 61°36' E 005°01'0 0.0
2017-Jul-23 20:00N 61°36' E 005°01'0 0.0
2017-Jul-23 19:30N 61°36' E 005°01'0 0.0
2017-Jul-23 19:00N 61°36' E 005°01'0 0.0
2017-Jul-23 18:30N 61°36' E 005°01'0 0.0
2017-Jul-23 18:00N 61°36' E 005°01'0 0.0
2017-Jul-23 17:30N 61°36' E 005°01'0 0.0
2017-Jul-23 17:00N 61°36' E 005°01'0 0.0
2017-Jul-23 16:30N 61°36' E 005°01'0 0.0
2017-Jul-23 16:00N 61°36' E 005°01'0 0.0
2017-Jul-23 15:30N 61°36' E 005°01'0 0.0
2017-Jul-23 15:00N 61°36' E 005°01'0 0.0
2017-Jul-23 14:30N 61°36' E 005°01'0 0.0
2017-Jul-23 14:00N 61°36' E 005°01'0 0.0
2017-Jul-23 13:30N 61°36' E 005°01'0 0.0
2017-Jul-23 13:00N 61°36' E 005°01'0 0.0
2017-Jul-23 12:30N 61°36' E 005°01'0 0.0
2017-Jul-23 12:00N 61°36' E 005°01'0 0.0
2017-Jul-23 11:30N 61°36' E 005°01'0 0.0
2017-Jul-23 11:00N 61°36' E 005°01'0 0.0
2017-Jul-23 10:30N 61°36' E 005°01'0 0.0
2017-Jul-23 10:00N 61°36' E 005°01'0 0.0
2017-Jul-23 09:30N 61°36' E 005°01'0 0.0
2017-Jul-23 09:00N 61°36' E 005°01'0 0.0
2017-Jul-23 08:30N 61°36' E 005°01'0 0.0
2017-Jul-23 08:00N 61°36' E 005°01'0 0.0
2017-Jul-23 07:30N 61°36' E 005°01'0 0.0
2017-Jul-23 07:00N 61°36' E 005°01'0 0.0
2017-Jul-23 06:30N 61°36' E 005°01'0 0.0
2017-Jul-23 06:00N 61°36' E 005°01'0 0.0
2017-Jul-23 05:30N 61°36' E 005°01'0 0.0
2017-Jul-23 05:00N 61°36' E 005°01'0 0.0
2017-Jul-23 04:30N 61°36' E 005°01'0 0.0
2017-Jul-23 04:00N 61°36' E 005°01'0 0.0
2017-Jul-23 03:30N 61°36' E 005°01'0 0.0
2017-Jul-23 03:00N 61°36' E 005°01'0 0.0
2017-Jul-23 02:30N 61°36' E 005°01'0 0.0
2017-Jul-23 02:00N 61°36' E 005°01'0 0.0
2017-Jul-23 01:30N 61°36' E 005°01'0 0.0
2017-Jul-23 01:00N 61°36' E 005°01'0 0.0
2017-Jul-23 00:30N 61°36' E 005°01'0 0.0
2017-Jul-23 00:00N 61°36' E 005°01'0 0.0
2017-Jul-22 23:30N 61°36' E 005°01'0 0.0
2017-Jul-22 23:00N 61°36' E 005°01'0 0.0
2017-Jul-22 22:30N 61°36' E 005°01'0 0.0
2017-Jul-22 22:00N 61°36' E 005°01'0 0.0
2017-Jul-22 21:30N 61°36' E 005°01'0 0.0
2017-Jul-22 21:00N 61°36' E 005°01'0 0.0
2017-Jul-22 20:30N 61°36' E 005°01'0 0.0
2017-Jul-22 20:00N 61°36' E 005°01'0 0.6
2017-Jul-22 19:29N 61°36' E 005°01'5 9.7
2017-Jul-22 19:00N 61°41' E 004°58'510.6
2017-Jul-22 18:30N 61°46' E 005°01'611.6
2017-Jul-22 18:00N 61°49' E 005°11'3 6.6
2017-Jul-22 17:30N 61°52' E 005°13'4 8.8
2017-Jul-22 17:00N 61°56' E 005°08'0 0.1
2017-Jul-22 16:30N 61°56' E 005°08'0 0.0
2017-Jul-22 15:59N 61°56' E 005°08'0 0.5
2017-Jul-22 15:30N 61°56' E 005°07'510.8
2017-Jul-22 15:00N 62°02' E 005°09'1110.8
2017-Jul-22 14:00N 62°12' E 005°06'611.6
2017-Jul-22 13:30N 62°16' E 005°17'611.5
2017-Jul-22 13:00N 62°18' E 005°28'611.1
2017-Jul-22 12:29N 62°19' E 005°40'0 0.6
2017-Jul-22 12:00N 62°19' E 005°39'0 0.0
2017-Jul-22 11:30N 62°19' E 005°39'0 0.0
2017-Jul-22 11:00N 62°19' E 005°39'0 0.0
2017-Jul-22 10:30N 62°19' E 005°39'0 0.0
2017-Jul-22 10:00N 62°19' E 005°39'0 0.0
2017-Jul-22 09:30N 62°19' E 005°39'0 0.0
2017-Jul-22 09:00N 62°19' E 005°39'0 0.0
2017-Jul-22 08:30N 62°19' E 005°39'0 0.0
2017-Jul-22 07:59N 62°19' E 005°39'0 0.0
2017-Jul-22 07:29N 62°19' E 005°39'0 0.0
2017-Jul-22 06:59N 62°19' E 005°39'0 0.0
2017-Jul-22 06:29N 62°19' E 005°39'0 0.0
2017-Jul-22 05:59N 62°19' E 005°39'0 0.0
2017-Jul-22 05:29N 62°19' E 005°39'0 0.0
2017-Jul-22 04:59N 62°19' E 005°39'0 0.0
2017-Jul-22 04:29N 62°19' E 005°39'0 0.0
2017-Jul-22 03:59N 62°19' E 005°39'0 0.0
2017-Jul-22 03:29N 62°19' E 005°39'0 0.0
2017-Jul-22 02:59N 62°19' E 005°39'0 0.0
2017-Jul-22 02:29N 62°19' E 005°39'0 0.0
2017-Jul-22 01:59N 62°19' E 005°39'0 0.0
2017-Jul-22 01:29N 62°19' E 005°39'0 0.0
2017-Jul-22 00:59N 62°19' E 005°39'1 1.3
2017-Jul-22 00:30N 62°19' E 005°38'5 9.7
2017-Jul-22 00:00N 62°18' E 005°29'5 9.5
2017-Jul-21 23:30N 62°16' E 005°19'5 9.8
2017-Jul-21 23:00N 62°13' E 005°10'4 9.0
2017-Jul-21 22:30N 62°10' E 005°04'5 9.9
2017-Jul-21 22:00N 62°05' E 005°06'5 9.6
2017-Jul-21 21:30N 62°01' E 005°09'5 9.3
2017-Jul-21 21:00N 61°56' E 005°08'4 8.1
2017-Jul-21 20:30N 61°53' E 005°12'3 6.2
2017-Jul-21 20:00N 61°50' E 005°14'510.0
2017-Jul-21 19:30N 61°47' E 005°05'510.1
2017-Jul-21 19:00N 61°43' E 004°58'5 9.9
2017-Jul-21 18:30N 61°38' E 004°59'5 9.2
2017-Jul-21 18:00N 61°34' E 004°59'5 9.6
2017-Jul-21 17:30N 61°29' E 004°59'510.4
2017-Jul-21 17:00N 61°25' E 004°52'510.1
2017-Jul-21 16:30N 61°20' E 004°49'5 9.9
2017-Jul-21 16:00N 61°16' E 004°55'5 9.6
2017-Jul-21 15:30N 61°12' E 005°00'5 9.5
2017-Jul-21 15:00N 61°09' E 005°08'0 0.2
2017-Jul-21 14:30N 61°09' E 005°08'0 0.0
2017-Jul-21 14:00N 61°09' E 005°08'0 0.0
2017-Jul-21 13:30N 61°09' E 005°08'2 3.4
2017-Jul-21 13:00N 61°10' E 005°05'510.2
2017-Jul-21 12:29N 61°13' E 004°57'511.4
2017-Jul-21 12:00N 61°18' E 004°52'510.2
2017-Jul-21 11:30N 61°23' E 004°50'510.9
2017-Jul-21 11:00N 61°28' E 004°57'610.9
2017-Jul-21 10:30N 61°33' E 004°60'3 6.4
2017-Jul-21 10:00N 61°36' E 005°02'0 0.5
2017-Jul-21 09:30N 61°36' E 005°02'0 0.1
2017-Jul-21 09:00N 61°36' E 005°02'0 0.0
2017-Jul-21 08:30N 61°36' E 005°02'3 5.5
2017-Jul-21 08:00N 61°34' E 004°58'5 9.8
2017-Jul-21 07:30N 61°29' E 004°59'510.5
2017-Jul-21 07:00N 61°25' E 004°52'510.3
2017-Jul-21 06:29N 61°20' E 004°49'510.5
2017-Jul-21 06:00N 61°16' E 004°55'510.4
2017-Jul-21 05:30N 61°11' E 005°01'510.6
2017-Jul-21 05:00N 61°06' E 005°01'3 6.2
2017-Jul-21 04:30N 61°04' E 004°57'0 0.0
2017-Jul-21 04:00N 61°04' E 004°57'0 0.0
2017-Jul-21 03:30N 61°04' E 004°57'0 0.0
2017-Jul-21 03:00N 61°04' E 004°57'0 0.0
2017-Jul-21 02:30N 61°04' E 004°57'0 0.0
2017-Jul-21 02:00N 61°04' E 004°57'0 0.0
2017-Jul-21 01:30N 61°04' E 004°57'0 0.0
2017-Jul-21 01:00N 61°04' E 004°57'0 0.0
2017-Jul-21 00:30N 61°04' E 004°57'0 0.0
2017-Jul-21 00:00N 61°04' E 004°57'1 1.7
2017-Jul-20 23:30N 61°04' E 004°58'0 0.3
2017-Jul-20 23:00N 61°04' E 004°58'0 0.5
2017-Jul-20 22:30N 61°04' E 004°58'0 0.4
2017-Jul-20 22:00N 61°04' E 004°57'0 0.3
2017-Jul-20 21:29N 61°04' E 004°57'0 0.1
2017-Jul-20 21:00N 61°04' E 004°57'0 0.7
2017-Jul-20 20:30N 61°04' E 004°57'0 0.3
2017-Jul-20 20:00N 61°04' E 004°57'0 0.0
2017-Jul-20 19:30N 61°04' E 004°57'0 0.0
2017-Jul-20 19:00N 61°04' E 004°57'0 0.0
2017-Jul-20 18:30N 61°04' E 004°57'0 0.0
2017-Jul-20 18:00N 61°04' E 004°57'0 0.0
2017-Jul-20 17:30N 61°04' E 004°57'0 0.0
2017-Jul-20 17:00N 61°04' E 004°57'0 0.0
2017-Jul-20 16:30N 61°04' E 004°57'0 0.0
2017-Jul-20 16:00N 61°04' E 004°57'0 0.0
2017-Jul-20 15:30N 61°04' E 004°57'0 0.0
2017-Jul-20 14:59N 61°04' E 004°57'0 0.5
2017-Jul-20 14:00N 61°04' E 004°57'5 9.4
2017-Jul-20 13:30N 61°09' E 005°01'510.0
2017-Jul-20 13:00N 61°13' E 004°57'611.6
2017-Jul-20 12:30N 61°18' E 004°52'510.3
2017-Jul-20 12:00N 61°23' E 004°50'611.5
2017-Jul-20 11:30N 61°28' E 004°57'610.9
2017-Jul-20 10:59N 61°33' E 004°60'510.3
2017-Jul-20 10:30N 61°38' E 004°59'611.1
2017-Jul-20 10:00N 61°44' E 004°58'611.9
2017-Jul-20 09:30N 61°48' E 005°07'510.7
2017-Jul-20 09:00N 61°52' E 005°16'510.7
2017-Jul-20 08:30N 61°55' E 005°07'510.5
2017-Jul-20 08:00N 62°00' E 005°09'611.7
2017-Jul-20 07:30N 62°06' E 005°06'610.9
2017-Jul-20 07:00N 62°11' E 005°05'611.5
2017-Jul-20 06:30N 62°15' E 005°14'611.7
2017-Jul-20 06:00N 62°17' E 005°26'611.2
2017-Jul-20 05:30N 62°19' E 005°37'1 2.2
2017-Jul-20 05:00N 62°19' E 005°39'0 0.0
2017-Jul-20 04:30N 62°19' E 005°39'0 0.0
2017-Jul-20 03:59N 62°19' E 005°39'0 0.1
2017-Jul-20 03:30N 62°19' E 005°39'4 8.2
2017-Jul-20 03:00N 62°18' E 005°32'510.3
2017-Jul-20 02:30N 62°17' E 005°21'510.2
2017-Jul-20 02:00N 62°14' E 005°11'5 9.8
2017-Jul-20 01:30N 62°10' E 005°04'510.7
2017-Jul-20 01:00N 62°05' E 005°07'510.7
2017-Jul-20 00:30N 61°60' E 005°10'510.3
2017-Jul-20 00:00N 61°55' E 005°07'5 9.7
2017-Jul-19 23:30N 61°52' E 005°15'4 7.7
2017-Jul-19 23:00N 61°49' E 005°10'4 8.9
2017-Jul-19 22:30N 61°46' E 005°04'0 0.0
2017-Jul-19 22:00N 61°46' E 005°04'0 0.0
2017-Jul-19 21:29N 61°46' E 005°04'0 0.0
2017-Jul-19 21:00N 61°46' E 005°04'0 0.0
2017-Jul-19 20:30N 61°46' E 005°04'0 0.0
2017-Jul-19 20:00N 61°46' E 005°04'0 0.0
2017-Jul-19 19:30N 61°46' E 005°04'0 0.0
2017-Jul-19 18:59N 61°46' E 005°04'0 0.0
2017-Jul-19 18:30N 61°46' E 005°04'0 0.0
2017-Jul-19 18:00N 61°46' E 005°04'0 0.0
2017-Jul-19 17:30N 61°46' E 005°04'0 0.8
2017-Jul-19 17:00N 61°46' E 005°04'0 0.2
2017-Jul-19 16:30N 61°46' E 005°04'0 0.3
2017-Jul-19 16:00N 61°46' E 005°04'0 0.2
2017-Jul-19 15:30N 61°46' E 005°04'0 0.5
2017-Jul-19 15:00N 61°46' E 005°04'0 0.0
2017-Jul-19 14:30N 61°46' E 005°04'0 0.0
2017-Jul-19 14:00N 61°46' E 005°04'0 0.0
2017-Jul-19 13:29N 61°46' E 005°04'0 0.0
2017-Jul-19 13:00N 61°46' E 005°04'0 0.0
2017-Jul-19 12:30N 61°46' E 005°04'0 0.0
2017-Jul-19 12:00N 61°46' E 005°04'0 0.0
2017-Jul-19 11:30N 61°46' E 005°04'0 0.0
2017-Jul-19 11:00N 61°46' E 005°04'0 0.5
2017-Jul-19 10:30N 61°46' E 005°04'0 0.5
2017-Jul-19 09:59N 61°46' E 005°04'0 0.2
2017-Jul-19 09:29N 61°46' E 005°04'0 1.0
2017-Jul-19 09:00N 61°46' E 005°04'0 0.5
2017-Jul-19 08:30N 61°46' E 005°04'0 0.2
2017-Jul-19 08:00N 61°46' E 005°04'4 8.8
2017-Jul-19 07:30N 61°49' E 005°11'3 6.7
2017-Jul-19 07:00N 61°53' E 005°11'4 8.7
2017-Jul-19 06:30N 61°57' E 005°08'510.8
2017-Jul-19 06:00N 62°02' E 005°09'611.0
2017-Jul-19 05:29N 62°07' E 005°05'510.3
2017-Jul-19 05:00N 62°12' E 005°06'510.8
2017-Jul-19 04:30N 62°15' E 005°15'510.9
2017-Jul-19 04:00N 62°18' E 005°26'510.8
2017-Jul-19 03:30N 62°19' E 005°38'1 1.9
2017-Jul-19 03:00N 62°19' E 005°39'0 0.0
2017-Jul-19 02:30N 62°19' E 005°39'0 0.0
2017-Jul-19 02:00N 62°19' E 005°39'0 0.8
2017-Jul-19 01:30N 62°19' E 005°39'510.0
2017-Jul-19 01:00N 62°18' E 005°29'5 9.9
2017-Jul-19 00:30N 62°16' E 005°19'510.1
2017-Jul-19 00:00N 62°13' E 005°09'4 9.0
2017-Jul-18 23:30N 62°10' E 005°04'5 9.8
2017-Jul-18 23:00N 62°05' E 005°07'510.3
2017-Jul-18 22:30N 61°60' E 005°10'5 9.8
2017-Jul-18 22:00N 61°55' E 005°07'5 9.1
2017-Jul-18 21:30N 61°52' E 005°14'4 7.2
2017-Jul-18 21:00N 61°49' E 005°11'5 9.6
2017-Jul-18 20:30N 61°46' E 005°04'0 0.1
2017-Jul-18 20:00N 61°46' E 005°04'0 0.0
2017-Jul-18 19:30N 61°46' E 005°04'0 0.0
2017-Jul-18 19:00N 61°46' E 005°04'0 0.0
2017-Jul-18 18:30N 61°46' E 005°04'0 0.0
2017-Jul-18 18:00N 61°46' E 005°04'0 0.0
2017-Jul-18 17:30N 61°46' E 005°04'0 0.0
2017-Jul-18 17:00N 61°46' E 005°04'0 0.0
2017-Jul-18 16:30N 61°46' E 005°04'0 0.0
2017-Jul-18 16:00N 61°46' E 005°04'0 0.0
2017-Jul-18 15:30N 61°46' E 005°04'0 0.5
2017-Jul-18 15:00N 61°46' E 005°04'0 0.1
2017-Jul-18 14:00N 61°46' E 005°04'0 0.2
2017-Jul-18 13:30N 61°46' E 005°04'0 0.2
2017-Jul-18 13:00N 61°46' E 005°04'0 0.0
2017-Jul-18 12:30N 61°46' E 005°04'0 0.0
2017-Jul-18 12:00N 61°46' E 005°04'0 0.0
2017-Jul-18 11:30N 61°46' E 005°04'0 0.0
2017-Jul-18 11:00N 61°46' E 005°04'0 0.0
2017-Jul-18 10:30N 61°46' E 005°04'0 0.0
2017-Jul-18 10:00N 61°46' E 005°04'0 0.0
2017-Jul-18 09:30N 61°46' E 005°04'0 0.0
2017-Jul-18 09:00N 61°45' E 005°04'0 0.0
2017-Jul-18 08:30N 61°46' E 005°04'0 0.0
2017-Jul-18 08:00N 61°46' E 005°04'1 1.5
2017-Jul-18 07:30N 61°46' E 005°04'0 0.5
2017-Jul-18 07:00N 61°46' E 005°04'0 0.2
2017-Jul-18 06:30N 61°46' E 005°04'0 0.4
2017-Jul-18 06:00N 61°46' E 005°04'0 0.6
2017-Jul-18 05:30N 61°46' E 005°03'0 0.1
2017-Jul-18 05:00N 61°46' E 005°03'0 0.5
2017-Jul-18 04:30N 61°46' E 005°03'1 2.3
2017-Jul-18 04:00N 61°45' E 005°01'4 7.9
2017-Jul-18 03:30N 61°42' E 004°58'5 9.8
2017-Jul-18 03:00N 61°37' E 004°59'1 2.6
2017-Jul-18 02:30N 61°36' E 005°01'0 0.0
2017-Jul-18 02:00N 61°36' E 005°01'0 0.0
2017-Jul-18 01:30N 61°36' E 005°01'0 0.0
2017-Jul-18 01:00N 61°36' E 005°01'0 0.0
2017-Jul-18 00:30N 61°36' E 005°01'0 0.0
2017-Jul-18 00:00N 61°36' E 005°01'0 0.0
2017-Jul-17 23:30N 61°36' E 005°01'0 0.0
2017-Jul-17 23:00N 61°36' E 005°01'0 0.0
2017-Jul-17 22:30N 61°36' E 005°01'0 0.0
2017-Jul-17 22:00N 61°36' E 005°01'0 0.0
2017-Jul-17 21:30N 61°36' E 005°01'0 0.0
2017-Jul-17 21:00N 61°36' E 005°01'0 0.0
2017-Jul-17 20:30N 61°36' E 005°01'0 0.0
2017-Jul-17 20:00N 61°36' E 005°01'0 0.0
2017-Jul-17 19:30N 61°36' E 005°01'0 0.0
2017-Jul-17 19:00N 61°36' E 005°01'0 0.0
2017-Jul-17 18:30N 61°36' E 005°01'0 0.0
2017-Jul-17 18:00N 61°36' E 005°01'0 0.0
2017-Jul-17 17:30N 61°36' E 005°01'0 0.0
2017-Jul-17 17:00N 61°36' E 005°01'0 0.0
2017-Jul-17 16:30N 61°36' E 005°01'0 0.0
2017-Jul-17 16:00N 61°36' E 005°01'0 0.0
2017-Jul-17 15:30N 61°36' E 005°01'0 0.0
2017-Jul-17 15:00N 61°36' E 005°01'0 0.0
2017-Jul-17 14:30N 61°36' E 005°01'0 0.0
2017-Jul-17 13:57N 61°36' E 005°01'0 0.0
2017-Jul-17 13:24N 61°36' E 005°01'0 0.0
2017-Jul-17 13:00N 61°36' E 005°01'0 0.1
2017-Jul-17 12:30N 61°36' E 005°01'0 0.0
2017-Jul-17 12:00N 61°36' E 005°01'0 0.0
2017-Jul-17 11:30N 61°36' E 005°01'0 0.0
2017-Jul-17 11:00N 61°36' E 005°01'0 0.0
2017-Jul-17 10:30N 61°36' E 005°01'0 0.0
2017-Jul-17 09:57N 61°36' E 005°01'0 0.0
2017-Jul-17 09:30N 61°36' E 005°01'0 0.0
2017-Jul-17 08:57N 61°36' E 005°01'0 0.0
2017-Jul-17 08:30N 61°36' E 005°01'0 0.0
2017-Jul-17 08:00N 61°36' E 005°01'0 0.0
2017-Jul-17 07:30N 61°36' E 005°01'0 0.0
2017-Jul-17 07:00N 61°36' E 005°01'0 0.0
2017-Jul-17 06:30N 61°36' E 005°01'  
Track history (hours):
 
Tides and Currents Weather Stations Pressure Air Temp Water Temp Dewpoint Dewpoint Depression Visibility Wind Speed Wind Dir Waves Ship Positions

Ro Fjord

Last reported at 2017-Jul-27 06:30 UTC. Time now 2017-Jul-27 06:44 UTC.
Position N 62°19' E 005°39'.

Length 72 m; draft 6.4 m.

Type: Ship. MMSI: 257430000.

Date/timePositionNaut miles runAvg speedWind from/ knotsBaromVisibWave heightAir tempDewpointWater temp
2017-Jul-27 06:30N 62°19' E 005°39'0 0.0
2017-Jul-27 06:00N 62°19' E 005°39'0 0.0
2017-Jul-27 05:30N 62°19' E 005°39'0 0.0
2017-Jul-27 05:00N 62°19' E 005°39'0 0.0
2017-Jul-27 04:30N 62°19' E 005°39'0 0.0
2017-Jul-27 04:00N 62°19' E 005°39'0 0.0
2017-Jul-27 03:30N 62°19' E 005°39'0 0.0
2017-Jul-27 03:00N 62°19' E 005°39'0 0.0
2017-Jul-27 02:29N 62°19' E 005°39'0 0.0
2017-Jul-27 02:00N 62°19' E 005°39'0 0.0
2017-Jul-27 01:30N 62°19' E 005°39'0 0.0
2017-Jul-27 01:00N 62°19' E 005°39'0 0.0
2017-Jul-27 00:30N 62°19' E 005°39'0 0.0
2017-Jul-27 00:00N 62°19' E 005°39'0 0.0
2017-Jul-26 23:30N 62°19' E 005°39'0 0.0
2017-Jul-26 23:00N 62°19' E 005°39'0 0.0
2017-Jul-26 22:30N 62°19' E 005°39'0 0.0
2017-Jul-26 21:59N 62°19' E 005°39'0 0.0
2017-Jul-26 21:30N 62°19' E 005°39'0 0.0
2017-Jul-26 21:00N 62°19' E 005°39'0 0.0
2017-Jul-26 20:30N 62°19' E 005°39'0 0.0
2017-Jul-26 20:00N 62°19' E 005°39'0 0.0
2017-Jul-26 19:30N 62°19' E 005°39'3 6.8
2017-Jul-26 19:00N 62°18' E 005°33'5 9.8
2017-Jul-26 18:30N 62°17' E 005°23'510.0
2017-Jul-26 18:00N 62°14' E 005°13'5 9.5
2017-Jul-26 17:30N 62°12' E 005°05'5 9.6
2017-Jul-26 16:59N 62°07' E 005°06'510.1
2017-Jul-26 16:30N 62°02' E 005°09'5 9.9
2017-Jul-26 15:59N 61°57' E 005°09'4 8.7
2017-Jul-26 15:30N 61°53' E 005°10'4 7.3
2017-Jul-26 15:00N 61°50' E 005°16'1010.1
2017-Jul-26 14:00N 61°44' E 004°58'5 9.7
2017-Jul-26 13:30N 61°39' E 004°59'5 9.4
2017-Jul-26 13:00N 61°35' E 004°57'5 9.1
2017-Jul-26 12:30N 61°30' E 004°60'5 9.9
2017-Jul-26 12:00N 61°26' E 004°53'510.0
2017-Jul-26 11:29N 61°22' E 004°49'5 9.6
2017-Jul-26 11:00N 61°17' E 004°54'510.0
2017-Jul-26 10:30N 61°13' E 004°58'510.3
2017-Jul-26 10:00N 61°09' E 005°06'1 2.1
2017-Jul-26 09:30N 61°09' E 005°08'0 0.0
2017-Jul-26 09:00N 61°09' E 005°08'0 0.0
2017-Jul-26 08:30N 61°09' E 005°08'0 0.1
2017-Jul-26 07:59N 61°09' E 005°08'0 0.0
2017-Jul-26 07:30N 61°09' E 005°08'0 0.0
2017-Jul-26 06:59N 61°09' E 005°08'2 5.0
2017-Jul-26 06:30N 61°10' E 005°03'3 6.7
2017-Jul-26 06:00N 61°13' E 004°59'4 7.5
2017-Jul-26 05:30N 61°16' E 004°55'4 8.3
2017-Jul-26 05:00N 61°19' E 004°50'4 7.5
2017-Jul-26 04:30N 61°23' E 004°49'4 8.5
2017-Jul-26 03:59N 61°27' E 004°54'5 9.3
2017-Jul-26 03:29N 61°30' E 004°60'4 9.0
2017-Jul-26 03:00N 61°35' E 004°57'5 9.3
2017-Jul-26 02:30N 61°39' E 004°59'5 9.4
2017-Jul-26 02:00N 61°44' E 004°58'5 9.6
2017-Jul-26 01:30N 61°47' E 005°05'5 9.6
2017-Jul-26 01:00N 61°50' E 005°14'3 6.7
2017-Jul-26 00:30N 61°53' E 005°10'4 6.9
2017-Jul-25 23:59N 61°56' E 005°07'0 0.0
2017-Jul-25 23:29N 61°56' E 005°07'0 0.0
2017-Jul-25 22:59N 61°56' E 005°07'0 0.0
2017-Jul-25 22:29N 61°56' E 005°07'0 0.0
2017-Jul-25 21:59N 61°56' E 005°07'0 0.0
2017-Jul-25 21:29N 61°56' E 005°07'0 0.0
2017-Jul-25 20:59N 61°56' E 005°07'0 0.0
2017-Jul-25 20:29N 61°56' E 005°07'0 0.0
2017-Jul-25 19:59N 61°56' E 005°07'0 0.0
2017-Jul-25 19:29N 61°56' E 005°07'0 0.0
2017-Jul-25 18:59N 61°56' E 005°07'0 0.0
2017-Jul-25 18:29N 61°56' E 005°07'0 0.0
2017-Jul-25 17:59N 61°56' E 005°07'0 0.0
2017-Jul-25 17:29N 61°56' E 005°07'0 0.0
2017-Jul-25 17:00N 61°56' E 005°07'2 4.7
2017-Jul-25 16:30N 61°58' E 005°09'4 7.2
2017-Jul-25 16:00N 62°02' E 005°09'4 7.5
2017-Jul-25 15:30N 62°05' E 005°06'4 7.7
2017-Jul-25 15:00N 62°09' E 005°04'9 8.9
2017-Jul-25 14:00N 62°16' E 005°17'511.2
2017-Jul-25 13:30N 62°18' E 005°28'510.7
2017-Jul-25 13:00N 62°19' E 005°39'0 0.7
2017-Jul-25 12:30N 62°19' E 005°39'0 0.0
2017-Jul-25 12:00N 62°19' E 005°39'0 0.0
2017-Jul-25 11:30N 62°19' E 005°39'0 0.0
2017-Jul-25 11:00N 62°19' E 005°39'0 0.0
2017-Jul-25 10:30N 62°19' E 005°39'0 0.0
2017-Jul-25 10:00N 62°19' E 005°39'0 0.0
2017-Jul-25 09:30N 62°19' E 005°39'0 0.0
2017-Jul-25 09:00N 62°19' E 005°39'0 0.0
2017-Jul-25 08:30N 62°19' E 005°39'0 0.0
2017-Jul-25 08:00N 62°19' E 005°39'0 0.0
2017-Jul-25 07:30N 62°19' E 005°39'0 0.0
2017-Jul-25 07:00N 62°19' E 005°39'0 0.0
2017-Jul-25 06:30N 62°19' E 005°39'0 0.0
2017-Jul-25 06:00N 62°19' E 005°39'0 0.0
2017-Jul-25 05:30N 62°19' E 005°39'0 0.0
2017-Jul-25 05:00N 62°19' E 005°39'0 0.0
2017-Jul-25 04:30N 62°19' E 005°39'0 0.0
2017-Jul-25 04:00N 62°19' E 005°39'0 0.0
2017-Jul-25 03:30N 62°19' E 005°39'0 0.0
2017-Jul-25 03:00N 62°19' E 005°39'0 0.0
2017-Jul-25 02:30N 62°19' E 005°39'0 0.0
2017-Jul-25 02:00N 62°19' E 005°39'0 0.0
2017-Jul-25 01:30N 62°19' E 005°39'0 0.0
2017-Jul-25 01:00N 62°19' E 005°39'1 1.4
2017-Jul-25 00:30N 62°19' E 005°38'5 9.8
2017-Jul-25 00:00N 62°18' E 005°28'5 9.5
2017-Jul-24 23:30N 62°16' E 005°18'5 9.4
2017-Jul-24 23:00N 62°13' E 005°10'4 8.9
2017-Jul-24 22:30N 62°10' E 005°04'5 9.9
2017-Jul-24 22:00N 62°05' E 005°06'510.1
2017-Jul-24 21:30N 62°01' E 005°09'5 9.7
2017-Jul-24 21:00N 61°56' E 005°08'4 8.6
2017-Jul-24 20:30N 61°52' E 005°13'3 6.2
2017-Jul-24 20:00N 61°49' E 005°12'5 9.9
2017-Jul-24 19:30N 61°47' E 005°03'5 9.7
2017-Jul-24 19:00N 61°43' E 004°57'510.1
2017-Jul-24 18:30N 61°38' E 004°59'4 8.8
2017-Jul-24 18:00N 61°33' E 005°00'5 9.8
2017-Jul-24 17:30N 61°29' E 004°58'510.0
2017-Jul-24 17:00N 61°25' E 004°51'5 9.9
2017-Jul-24 16:30N 61°20' E 004°50'5 9.7
2017-Jul-24 15:59N 61°16' E 004°55'9 3.0
2017-Jul-24 13:00N 61°09' E 005°08'0 0.5
2017-Jul-24 12:30N 61°09' E 005°08'4 8.7
2017-Jul-24 12:00N 61°12' E 005°01'5 8.9
2017-Jul-24 11:30N 61°15' E 004°55'5 9.8
2017-Jul-24 11:00N 61°20' E 004°50'4 8.6
2017-Jul-24 10:30N 61°24' E 004°50'5 9.1
2017-Jul-24 10:00N 61°27' E 004°56'5 9.2
2017-Jul-24 09:30N 61°32' E 005°00'4 8.9
2017-Jul-24 09:00N 61°36' E 004°58'2 3.4
2017-Jul-24 08:30N 61°36' E 005°01'0 0.0
2017-Jul-24 08:00N 61°36' E 005°01'0 0.0
2017-Jul-24 07:30N 61°36' E 005°01'0 0.0
2017-Jul-24 07:00N 61°36' E 005°01'0 0.0
2017-Jul-24 06:30N 61°36' E 005°01'0 0.0
2017-Jul-24 06:00N 61°36' E 005°01'0 0.0
2017-Jul-24 05:30N 61°36' E 005°01'0 0.0
2017-Jul-24 05:00N 61°36' E 005°01'0 0.0
2017-Jul-24 04:30N 61°36' E 005°01'0 0.0
2017-Jul-24 04:00N 61°36' E 005°01'0 0.0
2017-Jul-24 03:30N 61°36' E 005°01'0 0.0
2017-Jul-24 03:00N 61°36' E 005°01'0 0.0
2017-Jul-24 02:30N 61°36' E 005°01'0 0.0
2017-Jul-24 02:00N 61°36' E 005°01'0 0.0
2017-Jul-24 01:30N 61°36' E 005°01'0 0.0
2017-Jul-24 01:00N 61°36' E 005°01'0 0.0
2017-Jul-24 00:30N 61°36' E 005°01'0 0.0
2017-Jul-23 23:59N 61°36' E 005°01'0 0.0
2017-Jul-23 23:30N 61°36' E 005°01'0 0.0
2017-Jul-23 23:00N 61°36' E 005°01'0 0.0
2017-Jul-23 22:30N 61°36' E 005°01'0 0.0
2017-Jul-23 22:00N 61°36' E 005°01'0 0.0
2017-Jul-23 21:30N 61°36' E 005°01'0 0.0
2017-Jul-23 21:00N 61°36' E 005°01'0 0.0
2017-Jul-23 20:30N 61°36' E 005°01'0 0.0
2017-Jul-23 20:00N 61°36' E 005°01'0 0.0
2017-Jul-23 19:30N 61°36' E 005°01'0 0.0
2017-Jul-23 19:00N 61°36' E 005°01'0 0.0
2017-Jul-23 18:30N 61°36' E 005°01'0 0.0
2017-Jul-23 18:00N 61°36' E 005°01'0 0.0
2017-Jul-23 17:30N 61°36' E 005°01'0 0.0
2017-Jul-23 17:00N 61°36' E 005°01'0 0.0
2017-Jul-23 16:30N 61°36' E 005°01'0 0.0
2017-Jul-23 16:00N 61°36' E 005°01'0 0.0
2017-Jul-23 15:30N 61°36' E 005°01'0 0.0
2017-Jul-23 15:00N 61°36' E 005°01'0 0.0
2017-Jul-23 14:30N 61°36' E 005°01'0 0.0
2017-Jul-23 14:00N 61°36' E 005°01'0 0.0
2017-Jul-23 13:30N 61°36' E 005°01'0 0.0
2017-Jul-23 13:00N 61°36' E 005°01'0 0.0
2017-Jul-23 12:30N 61°36' E 005°01'0 0.0
2017-Jul-23 12:00N 61°36' E 005°01'0 0.0
2017-Jul-23 11:30N 61°36' E 005°01'0 0.0
2017-Jul-23 11:00N 61°36' E 005°01'0 0.0
2017-Jul-23 10:30N 61°36' E 005°01'0 0.0
2017-Jul-23 10:00N 61°36' E 005°01'0 0.0
2017-Jul-23 09:30N 61°36' E 005°01'0 0.0
2017-Jul-23 09:00N 61°36' E 005°01'0 0.0
2017-Jul-23 08:30N 61°36' E 005°01'0 0.0
2017-Jul-23 08:00N 61°36' E 005°01'0 0.0
2017-Jul-23 07:30N 61°36' E 005°01'0 0.0
2017-Jul-23 07:00N 61°36' E 005°01'0 0.0
2017-Jul-23 06:30N 61°36' E 005°01'0 0.0
2017-Jul-23 06:00N 61°36' E 005°01'0 0.0
2017-Jul-23 05:30N 61°36' E 005°01'0 0.0
2017-Jul-23 05:00N 61°36' E 005°01'0 0.0
2017-Jul-23 04:30N 61°36' E 005°01'0 0.0
2017-Jul-23 04:00N 61°36' E 005°01'0 0.0
2017-Jul-23 03:30N 61°36' E 005°01'0 0.0
2017-Jul-23 03:00N 61°36' E 005°01'0 0.0
2017-Jul-23 02:30N 61°36' E 005°01'0 0.0
2017-Jul-23 02:00N 61°36' E 005°01'0 0.0
2017-Jul-23 01:30N 61°36' E 005°01'0 0.0
2017-Jul-23 01:00N 61°36' E 005°01'0 0.0
2017-Jul-23 00:30N 61°36' E 005°01'0 0.0
2017-Jul-23 00:00N 61°36' E 005°01'0 0.0
2017-Jul-22 23:30N 61°36' E 005°01'0 0.0
2017-Jul-22 23:00N 61°36' E 005°01'0 0.0
2017-Jul-22 22:30N 61°36' E 005°01'0 0.0
2017-Jul-22 22:00N 61°36' E 005°01'0 0.0
2017-Jul-22 21:30N 61°36' E 005°01'0 0.0
2017-Jul-22 21:00N 61°36' E 005°01'0 0.0
2017-Jul-22 20:30N 61°36' E 005°01'0 0.0
2017-Jul-22 20:00N 61°36' E 005°01'0 0.6
2017-Jul-22 19:29N 61°36' E 005°01'5 9.7
2017-Jul-22 19:00N 61°41' E 004°58'510.6
2017-Jul-22 18:30N 61°46' E 005°01'611.6
2017-Jul-22 18:00N 61°49' E 005°11'3 6.6
2017-Jul-22 17:30N 61°52' E 005°13'4 8.8
2017-Jul-22 17:00N 61°56' E 005°08'0 0.1
2017-Jul-22 16:30N 61°56' E 005°08'0 0.0
2017-Jul-22 15:59N 61°56' E 005°08'0 0.5
2017-Jul-22 15:30N 61°56' E 005°07'510.8
2017-Jul-22 15:00N 62°02' E 005°09'1110.8
2017-Jul-22 14:00N 62°12' E 005°06'611.6
2017-Jul-22 13:30N 62°16' E 005°17'611.5
2017-Jul-22 13:00N 62°18' E 005°28'611.1
2017-Jul-22 12:29N 62°19' E 005°40'0 0.6
2017-Jul-22 12:00N 62°19' E 005°39'0 0.0
2017-Jul-22 11:30N 62°19' E 005°39'0 0.0
2017-Jul-22 11:00N 62°19' E 005°39'0 0.0
2017-Jul-22 10:30N 62°19' E 005°39'0 0.0
2017-Jul-22 10:00N 62°19' E 005°39'0 0.0
2017-Jul-22 09:30N 62°19' E 005°39'0 0.0
2017-Jul-22 09:00N 62°19' E 005°39'0 0.0
2017-Jul-22 08:30N 62°19' E 005°39'0 0.0
2017-Jul-22 07:59N 62°19' E 005°39'0 0.0
2017-Jul-22 07:29N 62°19' E 005°39'0 0.0
2017-Jul-22 06:59N 62°19' E 005°39'0 0.0
2017-Jul-22 06:29N 62°19' E 005°39'0 0.0
2017-Jul-22 05:59N 62°19' E 005°39'0 0.0
2017-Jul-22 05:29N 62°19' E 005°39'0 0.0
2017-Jul-22 04:59N 62°19' E 005°39'0 0.0
2017-Jul-22 04:29N 62°19' E 005°39'0 0.0
2017-Jul-22 03:59N 62°19' E 005°39'0 0.0
2017-Jul-22 03:29N 62°19' E 005°39'0 0.0
2017-Jul-22 02:59N 62°19' E 005°39'0 0.0
2017-Jul-22 02:29N 62°19' E 005°39'0 0.0
2017-Jul-22 01:59N 62°19' E 005°39'0 0.0
2017-Jul-22 01:29N 62°19' E 005°39'0 0.0
2017-Jul-22 00:59N 62°19' E 005°39'1 1.3
2017-Jul-22 00:30N 62°19' E 005°38'5 9.7
2017-Jul-22 00:00N 62°18' E 005°29'5 9.5
2017-Jul-21 23:30N 62°16' E 005°19'5 9.8
2017-Jul-21 23:00N 62°13' E 005°10'4 9.0
2017-Jul-21 22:30N 62°10' E 005°04'5 9.9
2017-Jul-21 22:00N 62°05' E 005°06'5 9.6
2017-Jul-21 21:30N 62°01' E 005°09'5 9.3
2017-Jul-21 21:00N 61°56' E 005°08'4 8.1
2017-Jul-21 20:30N 61°53' E 005°12'3 6.2
2017-Jul-21 20:00N 61°50' E 005°14'510.0
2017-Jul-21 19:30N 61°47' E 005°05'510.1
2017-Jul-21 19:00N 61°43' E 004°58'5 9.9
2017-Jul-21 18:30N 61°38' E 004°59'5 9.2
2017-Jul-21 18:00N 61°34' E 004°59'5 9.6
2017-Jul-21 17:30N 61°29' E 004°59'510.4
2017-Jul-21 17:00N 61°25' E 004°52'510.1
2017-Jul-21 16:30N 61°20' E 004°49'5 9.9
2017-Jul-21 16:00N 61°16' E 004°55'5 9.6
2017-Jul-21 15:30N 61°12' E 005°00'5 9.5
2017-Jul-21 15:00N 61°09' E 005°08'0 0.2
2017-Jul-21 14:30N 61°09' E 005°08'0 0.0
2017-Jul-21 14:00N 61°09' E 005°08'0 0.0
2017-Jul-21 13:30N 61°09' E 005°08'2 3.4
2017-Jul-21 13:00N 61°10' E 005°05'510.2
2017-Jul-21 12:29N 61°13' E 004°57'511.4
2017-Jul-21 12:00N 61°18' E 004°52'510.2
2017-Jul-21 11:30N 61°23' E 004°50'510.9
2017-Jul-21 11:00N 61°28' E 004°57'610.9
2017-Jul-21 10:30N 61°33' E 004°60'3 6.4
2017-Jul-21 10:00N 61°36' E 005°02'0 0.5
2017-Jul-21 09:30N 61°36' E 005°02'0 0.1
2017-Jul-21 09:00N 61°36' E 005°02'0 0.0
2017-Jul-21 08:30N 61°36' E 005°02'3 5.5
2017-Jul-21 08:00N 61°34' E 004°58'5 9.8
2017-Jul-21 07:30N 61°29' E 004°59'510.5
2017-Jul-21 07:00N 61°25' E 004°52'510.3
2017-Jul-21 06:29N 61°20' E 004°49'510.5
2017-Jul-21 06:00N 61°16' E 004°55'510.4
2017-Jul-21 05:30N 61°11' E 005°01'510.6
2017-Jul-21 05:00N 61°06' E 005°01'3 6.2
2017-Jul-21 04:30N 61°04' E 004°57'0 0.0
2017-Jul-21 04:00N 61°04' E 004°57'0 0.0
2017-Jul-21 03:30N 61°04' E 004°57'0 0.0
2017-Jul-21 03:00N 61°04' E 004°57'0 0.0
2017-Jul-21 02:30N 61°04' E 004°57'0 0.0
2017-Jul-21 02:00N 61°04' E 004°57'0 0.0
2017-Jul-21 01:30N 61°04' E 004°57'0 0.0
2017-Jul-21 01:00N 61°04' E 004°57'0 0.0
2017-Jul-21 00:30N 61°04' E 004°57'0 0.0
2017-Jul-21 00:00N 61°04' E 004°57'1 1.7
2017-Jul-20 23:30N 61°04' E 004°58'0 0.3
2017-Jul-20 23:00N 61°04' E 004°58'0 0.5
2017-Jul-20 22:30N 61°04' E 004°58'0 0.4
2017-Jul-20 22:00N 61°04' E 004°57'0 0.3
2017-Jul-20 21:29N 61°04' E 004°57'0 0.1
2017-Jul-20 21:00N 61°04' E 004°57'0 0.7
2017-Jul-20 20:30N 61°04' E 004°57'0 0.3
2017-Jul-20 20:00N 61°04' E 004°57'0 0.0
2017-Jul-20 19:30N 61°04' E 004°57'0 0.0
2017-Jul-20 19:00N 61°04' E 004°57'0 0.0
2017-Jul-20 18:30N 61°04' E 004°57'0 0.0
2017-Jul-20 18:00N 61°04' E 004°57'0 0.0
2017-Jul-20 17:30N 61°04' E 004°57'0 0.0
2017-Jul-20 17:00N 61°04' E 004°57'0 0.0
2017-Jul-20 16:30N 61°04' E 004°57'0 0.0
2017-Jul-20 16:00N 61°04' E 004°57'0 0.0
2017-Jul-20 15:30N 61°04' E 004°57'0 0.0
2017-Jul-20 14:59N 61°04' E 004°57'0 0.5
2017-Jul-20 14:00N 61°04' E 004°57'5 9.4
2017-Jul-20 13:30N 61°09' E 005°01'510.0
2017-Jul-20 13:00N 61°13' E 004°57'611.6
2017-Jul-20 12:30N 61°18' E 004°52'510.3
2017-Jul-20 12:00N 61°23' E 004°50'611.5
2017-Jul-20 11:30N 61°28' E 004°57'610.9
2017-Jul-20 10:59N 61°33' E 004°60'510.3
2017-Jul-20 10:30N 61°38' E 004°59'611.1
2017-Jul-20 10:00N 61°44' E 004°58'611.9
2017-Jul-20 09:30N 61°48' E 005°07'510.7
2017-Jul-20 09:00N 61°52' E 005°16'510.7
2017-Jul-20 08:30N 61°55' E 005°07'510.5
2017-Jul-20 08:00N 62°00' E 005°09'611.7
2017-Jul-20 07:30N 62°06' E 005°06'610.9
2017-Jul-20 07:00N 62°11' E 005°05'611.5
2017-Jul-20 06:30N 62°15' E 005°14'611.7
2017-Jul-20 06:00N 62°17' E 005°26'611.2
2017-Jul-20 05:30N 62°19' E 005°37'1 2.2
2017-Jul-20 05:00N 62°19' E 005°39'0 0.0
2017-Jul-20 04:30N 62°19' E 005°39'0 0.0
2017-Jul-20 03:59N 62°19' E 005°39'0 0.1
2017-Jul-20 03:30N 62°19' E 005°39'4 8.2
2017-Jul-20 03:00N 62°18' E 005°32'510.3
2017-Jul-20 02:30N 62°17' E 005°21'510.2
2017-Jul-20 02:00N 62°14' E 005°11'5 9.8
2017-Jul-20 01:30N 62°10' E 005°04'510.7
2017-Jul-20 01:00N 62°05' E 005°07'510.7
2017-Jul-20 00:30N 61°60' E 005°10'510.3
2017-Jul-20 00:00N 61°55' E 005°07'5 9.7
2017-Jul-19 23:30N 61°52' E 005°15'4 7.7
2017-Jul-19 23:00N 61°49' E 005°10'4 8.9
2017-Jul-19 22:30N 61°46' E 005°04'0 0.0
2017-Jul-19 22:00N 61°46' E 005°04'0 0.0
2017-Jul-19 21:29N 61°46' E 005°04'0 0.0
2017-Jul-19 21:00N 61°46' E 005°04'0 0.0
2017-Jul-19 20:30N 61°46' E 005°04'0 0.0
2017-Jul-19 20:00N 61°46' E 005°04'0 0.0
2017-Jul-19 19:30N 61°46' E 005°04'0 0.0
2017-Jul-19 18:59N 61°46' E 005°04'0 0.0
2017-Jul-19 18:30N 61°46' E 005°04'0 0.0
2017-Jul-19 18:00N 61°46' E 005°04'0 0.0
2017-Jul-19 17:30N 61°46' E 005°04'0 0.8
2017-Jul-19 17:00N 61°46' E 005°04'0 0.2
2017-Jul-19 16:30N 61°46' E 005°04'0 0.3
2017-Jul-19 16:00N 61°46' E 005°04'0 0.2
2017-Jul-19 15:30N 61°46' E 005°04'0 0.5
2017-Jul-19 15:00N 61°46' E 005°04'0 0.0
2017-Jul-19 14:30N 61°46' E 005°04'0 0.0
2017-Jul-19 14:00N 61°46' E 005°04'0 0.0
2017-Jul-19 13:29N 61°46' E 005°04'0 0.0
2017-Jul-19 13:00N 61°46' E 005°04'0 0.0
2017-Jul-19 12:30N 61°46' E 005°04'0 0.0
2017-Jul-19 12:00N 61°46' E 005°04'0 0.0
2017-Jul-19 11:30N 61°46' E 005°04'0 0.0
2017-Jul-19 11:00N 61°46' E 005°04'0 0.5
2017-Jul-19 10:30N 61°46' E 005°04'0 0.5
2017-Jul-19 09:59N 61°46' E 005°04'0 0.2
2017-Jul-19 09:29N 61°46' E 005°04'0 1.0
2017-Jul-19 09:00N 61°46' E 005°04'0 0.5
2017-Jul-19 08:30N 61°46' E 005°04'0 0.2
2017-Jul-19 08:00N 61°46' E 005°04'4 8.8
2017-Jul-19 07:30N 61°49' E 005°11'3 6.7
2017-Jul-19 07:00N 61°53' E 005°11'4 8.7
2017-Jul-19 06:30N 61°57' E 005°08'510.8
2017-Jul-19 06:00N 62°02' E 005°09'611.0
2017-Jul-19 05:29N 62°07' E 005°05'510.3
2017-Jul-19 05:00N 62°12' E 005°06'510.8
2017-Jul-19 04:30N 62°15' E 005°15'510.9
2017-Jul-19 04:00N 62°18' E 005°26'510.8
2017-Jul-19 03:30N 62°19' E 005°38'1 1.9
2017-Jul-19 03:00N 62°19' E 005°39'0 0.0
2017-Jul-19 02:30N 62°19' E 005°39'0 0.0
2017-Jul-19 02:00N 62°19' E 005°39'0 0.8
2017-Jul-19 01:30N 62°19' E 005°39'510.0
2017-Jul-19 01:00N 62°18' E 005°29'5 9.9
2017-Jul-19 00:30N 62°16' E 005°19'510.1
2017-Jul-19 00:00N 62°13' E 005°09'4 9.0
2017-Jul-18 23:30N 62°10' E 005°04'5 9.8
2017-Jul-18 23:00N 62°05' E 005°07'510.3
2017-Jul-18 22:30N 61°60' E 005°10'5 9.8
2017-Jul-18 22:00N 61°55' E 005°07'5 9.1
2017-Jul-18 21:30N 61°52' E 005°14'4 7.2
2017-Jul-18 21:00N 61°49' E 005°11'5 9.6
2017-Jul-18 20:30N 61°46' E 005°04'0 0.1
2017-Jul-18 20:00N 61°46' E 005°04'0 0.0
2017-Jul-18 19:30N 61°46' E 005°04'0 0.0
2017-Jul-18 19:00N 61°46' E 005°04'0 0.0
2017-Jul-18 18:30N 61°46' E 005°04'0 0.0
2017-Jul-18 18:00N 61°46' E 005°04'0 0.0
2017-Jul-18 17:30N 61°46' E 005°04'0 0.0
2017-Jul-18 17:00N 61°46' E 005°04'0 0.0
2017-Jul-18 16:30N 61°46' E 005°04'0 0.0
2017-Jul-18 16:00N 61°46' E 005°04'0 0.0
2017-Jul-18 15:30N 61°46' E 005°04'0 0.5
2017-Jul-18 15:00N 61°46' E 005°04'0 0.1
2017-Jul-18 14:00N 61°46' E 005°04'0 0.2
2017-Jul-18 13:30N 61°46' E 005°04'0 0.2
2017-Jul-18 13:00N 61°46' E 005°04'0 0.0
2017-Jul-18 12:30N 61°46' E 005°04'0 0.0
2017-Jul-18 12:00N 61°46' E 005°04'0 0.0
2017-Jul-18 11:30N 61°46' E 005°04'0 0.0
2017-Jul-18 11:00N 61°46' E 005°04'0 0.0
2017-Jul-18 10:30N 61°46' E 005°04'0 0.0
2017-Jul-18 10:00N 61°46' E 005°04'0 0.0
2017-Jul-18 09:30N 61°46' E 005°04'0 0.0
2017-Jul-18 09:00N 61°45' E 005°04'0 0.0
2017-Jul-18 08:30N 61°46' E 005°04'0 0.0
2017-Jul-18 08:00N 61°46' E 005°04'1 1.5
2017-Jul-18 07:30N 61°46' E 005°04'0 0.5
2017-Jul-18 07:00N 61°46' E 005°04'0 0.2
2017-Jul-18 06:30N 61°46' E 005°04'0 0.4
2017-Jul-18 06:00N 61°46' E 005°04'0 0.6
2017-Jul-18 05:30N 61°46' E 005°03'0 0.1
2017-Jul-18 05:00N 61°46' E 005°03'0 0.5
2017-Jul-18 04:30N 61°46' E 005°03'1 2.3
2017-Jul-18 04:00N 61°45' E 005°01'4 7.9
2017-Jul-18 03:30N 61°42' E 004°58'5 9.8
2017-Jul-18 03:00N 61°37' E 004°59'1 2.6
2017-Jul-18 02:30N 61°36' E 005°01'0 0.0
2017-Jul-18 02:00N 61°36' E 005°01'0 0.0
2017-Jul-18 01:30N 61°36' E 005°01'0 0.0
2017-Jul-18 01:00N 61°36' E 005°01'0 0.0
2017-Jul-18 00:30N 61°36' E 005°01'0 0.0
2017-Jul-18 00:00N 61°36' E 005°01'0 0.0
2017-Jul-17 23:30N 61°36' E 005°01'0 0.0
2017-Jul-17 23:00N 61°36' E 005°01'0 0.0
2017-Jul-17 22:30N 61°36' E 005°01'0 0.0
2017-Jul-17 22:00N 61°36' E 005°01'0 0.0
2017-Jul-17 21:30N 61°36' E 005°01'0 0.0
2017-Jul-17 21:00N 61°36' E 005°01'0 0.0
2017-Jul-17 20:30N 61°36' E 005°01'0 0.0
2017-Jul-17 20:00N 61°36' E 005°01'0 0.0
2017-Jul-17 19:30N 61°36' E 005°01'0 0.0
2017-Jul-17 19:00N 61°36' E 005°01'0 0.0
2017-Jul-17 18:30N 61°36' E 005°01'0 0.0
2017-Jul-17 18:00N 61°36' E 005°01'0 0.0
2017-Jul-17 17:30N 61°36' E 005°01'0 0.0
2017-Jul-17 17:00N 61°36' E 005°01'0 0.0
2017-Jul-17 16:30N 61°36' E 005°01'0 0.0
2017-Jul-17 16:00N 61°36' E 005°01'0 0.0
2017-Jul-17 15:30N 61°36' E 005°01'0 0.0
2017-Jul-17 15:00N 61°36' E 005°01'0 0.0
2017-Jul-17 14:30N 61°36' E 005°01'0 0.0
2017-Jul-17 13:57N 61°36' E 005°01'0 0.0
2017-Jul-17 13:24N 61°36' E 005°01'0 0.0
2017-Jul-17 13:00N 61°36' E 005°01'0 0.1
2017-Jul-17 12:30N 61°36' E 005°01'0 0.0
2017-Jul-17 12:00N 61°36' E 005°01'0 0.0
2017-Jul-17 11:30N 61°36' E 005°01'0 0.0
2017-Jul-17 11:00N 61°36' E 005°01'0 0.0
2017-Jul-17 10:30N 61°36' E 005°01'0 0.0
2017-Jul-17 09:57N 61°36' E 005°01'0 0.0
2017-Jul-17 09:30N 61°36' E 005°01'0 0.0
2017-Jul-17 08:57N 61°36' E 005°01'0 0.0
2017-Jul-17 08:30N 61°36' E 005°01'0 0.0
2017-Jul-17 08:00N 61°36' E 005°01'0 0.0
2017-Jul-17 07:30N 61°36' E 005°01'0 0.0
2017-Jul-17 07:00N 61°36' E 005°01'0 0.0
2017-Jul-17 06:30N 61°36' E 005°01'  

Dump ship's entire track history